sensor_id;sensor_type;location;lat;lon;timestamp;P1;durP1;ratioP1;P2;durP2;ratioP2
69678;SDS011;56915;52.046;4.854;2022-07-01T00:01:47;22.35;;;10.05;;
69678;SDS011;56915;52.046;4.854;2022-07-01T00:04:31;23.37;;;10.93;;
69678;SDS011;56915;52.046;4.854;2022-07-01T00:07:00;25.42;;;11.80;;
69678;SDS011;56915;52.046;4.854;2022-07-01T00:09:39;29.95;;;12.65;;
69678;SDS011;56915;52.046;4.854;2022-07-01T00:12:10;33.97;;;13.32;;
69678;SDS011;56915;52.046;4.854;2022-07-01T00:45:50;39.67;;;17.60;;
69678;SDS011;56915;52.046;4.854;2022-07-01T00:51:58;38.63;;;17.00;;
69678;SDS011;56915;52.046;4.854;2022-07-01T01:17:13;35.42;;;16.15;;
69678;SDS011;56915;52.046;4.854;2022-07-01T01:50:48;45.95;;;17.00;;
69678;SDS011;56915;52.046;4.854;2022-07-01T02:13:57;44.42;;;16.35;;
69678;SDS011;56915;52.046;4.854;2022-07-01T02:16:23;44.08;;;16.70;;
69678;SDS011;56915;52.046;4.854;2022-07-01T02:18:51;41.08;;;16.30;;
69678;SDS011;56915;52.046;4.854;2022-07-01T02:21:17;50.63;;;16.73;;
69678;SDS011;56915;52.046;4.854;2022-07-01T02:23:44;42.47;;;16.67;;
69678;SDS011;56915;52.046;4.854;2022-07-01T02:26:11;42.60;;;16.23;;
69678;SDS011;56915;52.046;4.854;2022-07-01T02:28:48;39.33;;;15.25;;
69678;SDS011;56915;52.046;4.854;2022-07-01T02:31:18;44.28;;;16.55;;
69678;SDS011;56915;52.046;4.854;2022-07-01T02:34:01;41.63;;;15.57;;
69678;SDS011;56915;52.046;4.854;2022-07-01T02:40:17;46.28;;;15.52;;
69678;SDS011;56915;52.046;4.854;2022-07-01T02:43:09;43.55;;;15.68;;
69678;SDS011;56915;52.046;4.854;2022-07-01T02:45:40;43.50;;;15.95;;
69678;SDS011;56915;52.046;4.854;2022-07-01T02:48:08;39.43;;;14.70;;
69678;SDS011;56915;52.046;4.854;2022-07-01T02:50:38;41.47;;;15.38;;
69678;SDS011;56915;52.046;4.854;2022-07-01T02:53:08;48.85;;;15.75;;
69678;SDS011;56915;52.046;4.854;2022-07-01T02:55:39;40.85;;;15.68;;
69678;SDS011;56915;52.046;4.854;2022-07-01T02:58:13;47.80;;;15.88;;
69678;SDS011;56915;52.046;4.854;2022-07-01T03:00:47;42.90;;;15.33;;
69678;SDS011;56915;52.046;4.854;2022-07-01T03:03:16;47.55;;;15.40;;
69678;SDS011;56915;52.046;4.854;2022-07-01T03:05:43;45.63;;;15.23;;
69678;SDS011;56915;52.046;4.854;2022-07-01T03:08:13;45.88;;;15.75;;
69678;SDS011;56915;52.046;4.854;2022-07-01T03:13:41;44.10;;;14.97;;
69678;SDS011;56915;52.046;4.854;2022-07-01T03:16:07;39.58;;;14.90;;
69678;SDS011;56915;52.046;4.854;2022-07-01T03:18:37;43.60;;;15.70;;
69678;SDS011;56915;52.046;4.854;2022-07-01T03:21:07;37.63;;;14.45;;
69678;SDS011;56915;52.046;4.854;2022-07-01T03:23:42;43.67;;;15.07;;
69678;SDS011;56915;52.046;4.854;2022-07-01T03:54:38;39.57;;;14.30;;
69678;SDS011;56915;52.046;4.854;2022-07-01T04:00:54;34.22;;;12.93;;
69678;SDS011;56915;52.046;4.854;2022-07-01T04:14:21;30.70;;;12.05;;
69678;SDS011;56915;52.046;4.854;2022-07-01T04:18:00;28.10;;;12.10;;
69678;SDS011;56915;52.046;4.854;2022-07-01T04:20:54;35.20;;;12.57;;
69678;SDS011;56915;52.046;4.854;2022-07-01T04:30:55;30.17;;;11.18;;
69678;SDS011;56915;52.046;4.854;2022-07-01T04:34:32;23.83;;;10.70;;
69678;SDS011;56915;52.046;4.854;2022-07-01T04:37:02;25.25;;;10.57;;
69678;SDS011;56915;52.046;4.854;2022-07-01T04:55:32;16.52;;;7.70;;
69678;SDS011;56915;52.046;4.854;2022-07-01T04:57:59;19.58;;;8.60;;
69678;SDS011;56915;52.046;4.854;2022-07-01T05:00:26;16.80;;;7.47;;
69678;SDS011;56915;52.046;4.854;2022-07-01T05:02:53;15.10;;;7.38;;
69678;SDS011;56915;52.046;4.854;2022-07-01T05:05:20;12.55;;;7.22;;
69678;SDS011;56915;52.046;4.854;2022-07-01T05:07:46;12.75;;;6.90;;
69678;SDS011;56915;52.046;4.854;2022-07-01T05:10:13;15.75;;;6.72;;
69678;SDS011;56915;52.046;4.854;2022-07-01T05:12:40;14.03;;;6.77;;
69678;SDS011;56915;52.046;4.854;2022-07-01T05:15:07;15.13;;;6.82;;
69678;SDS011;56915;52.046;4.854;2022-07-01T05:17:35;13.15;;;6.63;;
69678;SDS011;56915;52.046;4.854;2022-07-01T05:20:21;15.35;;;6.28;;
69678;SDS011;56915;52.046;4.854;2022-07-01T05:23:09;15.57;;;6.43;;
69678;SDS011;56915;52.046;4.854;2022-07-01T05:25:36;15.57;;;6.87;;
69678;SDS011;56915;52.046;4.854;2022-07-01T05:28:03;12.70;;;6.80;;
69678;SDS011;56915;52.046;4.854;2022-07-01T05:30:30;14.68;;;6.35;;
69678;SDS011;56915;52.046;4.854;2022-07-01T05:32:57;14.77;;;5.97;;
69678;SDS011;56915;52.046;4.854;2022-07-01T05:35:24;14.70;;;5.80;;
69678;SDS011;56915;52.046;4.854;2022-07-01T05:37:50;15.07;;;6.27;;
69678;SDS011;56915;52.046;4.854;2022-07-01T05:40:17;14.48;;;5.75;;
69678;SDS011;56915;52.046;4.854;2022-07-01T05:42:44;15.30;;;5.90;;
69678;SDS011;56915;52.046;4.854;2022-07-01T05:45:11;10.20;;;5.72;;
69678;SDS011;56915;52.046;4.854;2022-07-01T05:47:38;15.02;;;6.05;;
69678;SDS011;56915;52.046;4.854;2022-07-01T05:50:05;13.67;;;6.23;;
69678;SDS011;56915;52.046;4.854;2022-07-01T05:52:33;13.52;;;5.85;;
69678;SDS011;56915;52.046;4.854;2022-07-01T05:54:59;12.85;;;5.82;;
69678;SDS011;56915;52.046;4.854;2022-07-01T05:57:27;11.85;;;5.43;;
69678;SDS011;56915;52.046;4.854;2022-07-01T05:59:54;12.27;;;5.30;;
69678;SDS011;56915;52.046;4.854;2022-07-01T06:02:20;9.80;;;4.63;;
69678;SDS011;56915;52.046;4.854;2022-07-01T06:04:47;12.05;;;4.88;;
69678;SDS011;56915;52.046;4.854;2022-07-01T06:07:14;12.95;;;4.75;;
69678;SDS011;56915;52.046;4.854;2022-07-01T06:09:41;12.25;;;4.28;;
69678;SDS011;56915;52.046;4.854;2022-07-01T06:12:07;11.93;;;4.97;;
69678;SDS011;56915;52.046;4.854;2022-07-01T06:14:34;9.67;;;4.80;;
69678;SDS011;56915;52.046;4.854;2022-07-01T06:17:04;11.45;;;4.95;;
69678;SDS011;56915;52.046;4.854;2022-07-01T06:19:31;9.25;;;4.50;;
69678;SDS011;56915;52.046;4.854;2022-07-01T06:21:57;11.23;;;4.32;;
69678;SDS011;56915;52.046;4.854;2022-07-01T06:24:24;10.60;;;4.75;;
69678;SDS011;56915;52.046;4.854;2022-07-01T06:26:51;12.07;;;4.50;;
69678;SDS011;56915;52.046;4.854;2022-07-01T06:29:18;9.57;;;4.47;;
69678;SDS011;56915;52.046;4.854;2022-07-01T06:31:45;10.63;;;4.40;;
69678;SDS011;56915;52.046;4.854;2022-07-01T06:34:11;11.20;;;4.10;;
69678;SDS011;56915;52.046;4.854;2022-07-01T06:36:38;10.40;;;4.57;;
69678;SDS011;56915;52.046;4.854;2022-07-01T06:39:05;9.17;;;4.50;;
69678;SDS011;56915;52.046;4.854;2022-07-01T06:41:32;11.05;;;4.80;;
69678;SDS011;56915;52.046;4.854;2022-07-01T06:44:00;10.05;;;4.70;;
69678;SDS011;56915;52.046;4.854;2022-07-01T06:46:28;9.85;;;4.57;;
69678;SDS011;56915;52.046;4.854;2022-07-01T06:48:56;12.20;;;4.07;;
69678;SDS011;56915;52.046;4.854;2022-07-01T06:51:25;9.03;;;4.37;;
69678;SDS011;56915;52.046;4.854;2022-07-01T06:53:52;8.93;;;3.65;;
69678;SDS011;56915;52.046;4.854;2022-07-01T06:56:19;9.52;;;3.88;;
69678;SDS011;56915;52.046;4.854;2022-07-01T06:58:46;7.70;;;3.47;;
69678;SDS011;56915;52.046;4.854;2022-07-01T07:01:13;8.55;;;3.30;;
69678;SDS011;56915;52.046;4.854;2022-07-01T07:03:40;9.33;;;3.60;;
69678;SDS011;56915;52.046;4.854;2022-07-01T07:06:07;9.20;;;3.42;;
69678;SDS011;56915;52.046;4.854;2022-07-01T07:08:34;9.65;;;3.20;;
69678;SDS011;56915;52.046;4.854;2022-07-01T07:11:01;7.25;;;3.13;;
69678;SDS011;56915;52.046;4.854;2022-07-01T07:13:29;6.90;;;3.00;;
69678;SDS011;56915;52.046;4.854;2022-07-01T07:15:56;8.03;;;2.60;;
69678;SDS011;56915;52.046;4.854;2022-07-01T07:18:23;7.03;;;2.55;;
69678;SDS011;56915;52.046;4.854;2022-07-01T07:20:50;10.30;;;3.00;;
69678;SDS011;56915;52.046;4.854;2022-07-01T07:23:19;7.80;;;2.70;;
69678;SDS011;56915;52.046;4.854;2022-07-01T07:25:46;9.20;;;2.92;;
69678;SDS011;56915;52.046;4.854;2022-07-01T07:28:13;9.73;;;2.63;;
69678;SDS011;56915;52.046;4.854;2022-07-01T07:30:40;8.75;;;2.50;;
69678;SDS011;56915;52.046;4.854;2022-07-01T07:33:07;9.07;;;2.60;;
69678;SDS011;56915;52.046;4.854;2022-07-01T07:35:34;7.78;;;2.72;;
69678;SDS011;56915;52.046;4.854;2022-07-01T07:38:00;10.23;;;2.83;;
69678;SDS011;56915;52.046;4.854;2022-07-01T07:40:27;8.63;;;2.60;;
69678;SDS011;56915;52.046;4.854;2022-07-01T07:42:54;7.03;;;2.30;;
69678;SDS011;56915;52.046;4.854;2022-07-01T07:45:21;7.75;;;2.50;;
69678;SDS011;56915;52.046;4.854;2022-07-01T07:47:48;5.00;;;2.22;;
69678;SDS011;56915;52.046;4.854;2022-07-01T07:50:16;10.50;;;2.60;;
69678;SDS011;56915;52.046;4.854;2022-07-01T07:52:43;7.87;;;3.07;;
69678;SDS011;56915;52.046;4.854;2022-07-01T07:55:10;9.43;;;2.60;;
69678;SDS011;56915;52.046;4.854;2022-07-01T07:57:37;4.78;;;2.60;;
69678;SDS011;56915;52.046;4.854;2022-07-01T08:00:08;7.95;;;2.85;;
69678;SDS011;56915;52.046;4.854;2022-07-01T08:02:37;5.88;;;2.42;;
69678;SDS011;56915;52.046;4.854;2022-07-01T08:05:06;4.63;;;2.27;;
69678;SDS011;56915;52.046;4.854;2022-07-01T08:07:39;5.85;;;2.47;;
69678;SDS011;56915;52.046;4.854;2022-07-01T08:10:08;5.85;;;2.63;;
69678;SDS011;56915;52.046;4.854;2022-07-01T08:12:36;4.75;;;2.10;;
69678;SDS011;56915;52.046;4.854;2022-07-01T08:15:03;8.43;;;2.10;;
69678;SDS011;56915;52.046;4.854;2022-07-01T08:17:32;6.33;;;1.80;;
69678;SDS011;56915;52.046;4.854;2022-07-01T08:19:59;6.57;;;2.08;;
69678;SDS011;56915;52.046;4.854;2022-07-01T08:22:26;6.80;;;1.95;;
69678;SDS011;56915;52.046;4.854;2022-07-01T08:24:52;4.93;;;1.30;;
69678;SDS011;56915;52.046;4.854;2022-07-01T08:27:19;5.57;;;1.58;;
69678;SDS011;56915;52.046;4.854;2022-07-01T08:29:46;6.03;;;1.70;;
69678;SDS011;56915;52.046;4.854;2022-07-01T08:32:13;3.70;;;1.70;;
69678;SDS011;56915;52.046;4.854;2022-07-01T08:34:39;3.13;;;1.40;;
69678;SDS011;56915;52.046;4.854;2022-07-01T08:37:07;7.15;;;1.75;;
69678;SDS011;56915;52.046;4.854;2022-07-01T08:39:34;6.70;;;1.60;;
69678;SDS011;56915;52.046;4.854;2022-07-01T08:42:00;8.20;;;1.50;;
69678;SDS011;56915;52.046;4.854;2022-07-01T08:44:27;4.13;;;1.60;;
69678;SDS011;56915;52.046;4.854;2022-07-01T08:46:54;7.22;;;1.40;;
69678;SDS011;56915;52.046;4.854;2022-07-01T08:49:21;6.00;;;1.48;;
69678;SDS011;56915;52.046;4.854;2022-07-01T08:51:49;5.03;;;1.60;;
69678;SDS011;56915;52.046;4.854;2022-07-01T08:54:16;6.80;;;1.50;;
69678;SDS011;56915;52.046;4.854;2022-07-01T08:56:43;4.00;;;1.40;;
69678;SDS011;56915;52.046;4.854;2022-07-01T08:59:21;8.05;;;1.52;;
69678;SDS011;56915;52.046;4.854;2022-07-01T09:02:00;5.80;;;1.65;;
69678;SDS011;56915;52.046;4.854;2022-07-01T09:04:33;7.47;;;1.63;;
69678;SDS011;56915;52.046;4.854;2022-07-01T09:07:03;4.20;;;1.33;;
69678;SDS011;56915;52.046;4.854;2022-07-01T09:09:35;5.95;;;1.52;;
69678;SDS011;56915;52.046;4.854;2022-07-01T09:12:04;3.42;;;1.17;;
69678;SDS011;56915;52.046;4.854;2022-07-01T09:14:32;5.22;;;1.40;;
69678;SDS011;56915;52.046;4.854;2022-07-01T09:17:05;6.10;;;1.60;;
69678;SDS011;56915;52.046;4.854;2022-07-01T09:19:35;2.90;;;1.30;;
69678;SDS011;56915;52.046;4.854;2022-07-01T09:22:11;6.43;;;1.48;;
69678;SDS011;56915;52.046;4.854;2022-07-01T09:24:39;4.05;;;1.40;;
69678;SDS011;56915;52.046;4.854;2022-07-01T09:27:10;6.72;;;1.70;;
69678;SDS011;56915;52.046;4.854;2022-07-01T09:29:53;5.00;;;1.55;;
69678;SDS011;56915;52.046;4.854;2022-07-01T09:32:21;4.17;;;1.60;;
69678;SDS011;56915;52.046;4.854;2022-07-01T09:34:52;7.80;;;1.65;;
69678;SDS011;56915;52.046;4.854;2022-07-01T09:37:23;3.90;;;1.30;;
69678;SDS011;56915;52.046;4.854;2022-07-01T09:39:51;5.45;;;1.20;;
69678;SDS011;56915;52.046;4.854;2022-07-01T09:42:21;2.85;;;1.25;;
69678;SDS011;56915;52.046;4.854;2022-07-01T09:44:56;4.07;;;1.40;;
69678;SDS011;56915;52.046;4.854;2022-07-01T09:47:29;3.10;;;1.23;;
69678;SDS011;56915;52.046;4.854;2022-07-01T09:49:57;3.13;;;1.30;;
69678;SDS011;56915;52.046;4.854;2022-07-01T09:52:25;4.10;;;1.08;;
69678;SDS011;56915;52.046;4.854;2022-07-01T09:55:02;3.28;;;1.15;;
69678;SDS011;56915;52.046;4.854;2022-07-01T09:57:29;5.60;;;1.00;;
69678;SDS011;56915;52.046;4.854;2022-07-01T09:59:56;4.95;;;1.27;;
69678;SDS011;56915;52.046;4.854;2022-07-01T10:02:25;4.78;;;1.08;;
69678;SDS011;56915;52.046;4.854;2022-07-01T10:05:00;3.05;;;1.15;;
69678;SDS011;56915;52.046;4.854;2022-07-01T10:12:53;2.70;;;0.95;;
69678;SDS011;56915;52.046;4.854;2022-07-01T10:15:22;2.63;;;1.00;;
69678;SDS011;56915;52.046;4.854;2022-07-01T10:17:50;2.70;;;0.98;;
69678;SDS011;56915;52.046;4.854;2022-07-01T10:20:22;5.20;;;1.45;;
69678;SDS011;56915;52.046;4.854;2022-07-01T10:22:50;3.00;;;1.10;;
69678;SDS011;56915;52.046;4.854;2022-07-01T10:25:44;3.50;;;1.33;;
69678;SDS011;56915;52.046;4.854;2022-07-01T10:41:34;3.85;;;1.30;;
69678;SDS011;56915;52.046;4.854;2022-07-01T10:44:03;2.15;;;1.02;;
69678;SDS011;56915;52.046;4.854;2022-07-01T10:46:46;2.95;;;0.95;;
69678;SDS011;56915;52.046;4.854;2022-07-01T10:52:10;3.67;;;0.85;;
69678;SDS011;56915;52.046;4.854;2022-07-01T11:02:26;2.97;;;0.53;;
69678;SDS011;56915;52.046;4.854;2022-07-01T11:05:08;4.05;;;0.70;;
69678;SDS011;56915;52.046;4.854;2022-07-01T11:07:38;2.00;;;0.82;;
69678;SDS011;56915;52.046;4.854;2022-07-01T11:10:06;2.47;;;0.73;;
69678;SDS011;56915;52.046;4.854;2022-07-01T11:12:34;3.65;;;1.15;;
69678;SDS011;56915;52.046;4.854;2022-07-01T11:15:01;4.47;;;0.90;;
69678;SDS011;56915;52.046;4.854;2022-07-01T11:17:34;2.70;;;1.10;;
69678;SDS011;56915;52.046;4.854;2022-07-01T11:20:01;2.85;;;0.90;;
69678;SDS011;56915;52.046;4.854;2022-07-01T11:22:29;2.75;;;0.90;;
69678;SDS011;56915;52.046;4.854;2022-07-01T11:25:03;1.80;;;1.00;;
69678;SDS011;56915;52.046;4.854;2022-07-01T11:27:32;2.63;;;1.20;;
69678;SDS011;56915;52.046;4.854;2022-07-01T11:30:01;2.65;;;1.00;;
69678;SDS011;56915;52.046;4.854;2022-07-01T11:32:34;3.10;;;1.10;;
69678;SDS011;56915;52.046;4.854;2022-07-01T11:35:04;8.65;;;1.10;;
69678;SDS011;56915;52.046;4.854;2022-07-01T11:37:52;2.92;;;0.95;;
69678;SDS011;56915;52.046;4.854;2022-07-01T11:40:37;4.30;;;1.23;;
69678;SDS011;56915;52.046;4.854;2022-07-01T11:43:18;3.47;;;1.10;;
69678;SDS011;56915;52.046;4.854;2022-07-01T11:45:46;2.20;;;1.00;;
69678;SDS011;56915;52.046;4.854;2022-07-01T11:48:27;1.58;;;0.80;;
69678;SDS011;56915;52.046;4.854;2022-07-01T11:51:13;4.10;;;1.35;;
69678;SDS011;56915;52.046;4.854;2022-07-01T11:53:42;4.70;;;1.20;;
69678;SDS011;56915;52.046;4.854;2022-07-01T11:56:12;4.45;;;1.02;;
69678;SDS011;56915;52.046;4.854;2022-07-01T11:58:43;1.92;;;0.82;;
69678;SDS011;56915;52.046;4.854;2022-07-01T12:01:19;3.17;;;1.30;;
69678;SDS011;56915;52.046;4.854;2022-07-01T12:03:46;1.77;;;1.10;;
69678;SDS011;56915;52.046;4.854;2022-07-01T12:06:14;2.40;;;0.90;;
69678;SDS011;56915;52.046;4.854;2022-07-01T12:08:43;2.80;;;0.82;;
69678;SDS011;56915;52.046;4.854;2022-07-01T12:11:13;7.05;;;0.90;;
69678;SDS011;56915;52.046;4.854;2022-07-01T12:13:40;2.50;;;1.20;;
69678;SDS011;56915;52.046;4.854;2022-07-01T12:16:14;6.28;;;1.58;;
69678;SDS011;56915;52.046;4.854;2022-07-01T12:18:58;3.80;;;1.50;;
69678;SDS011;56915;52.046;4.854;2022-07-01T12:21:27;6.60;;;1.50;;
69678;SDS011;56915;52.046;4.854;2022-07-01T12:24:05;4.68;;;1.77;;
69678;SDS011;56915;52.046;4.854;2022-07-01T12:29:18;4.82;;;1.50;;
69678;SDS011;56915;52.046;4.854;2022-07-01T12:31:59;3.47;;;1.30;;
69678;SDS011;56915;52.046;4.854;2022-07-01T12:37:11;5.32;;;1.58;;
69678;SDS011;56915;52.046;4.854;2022-07-01T12:39:46;4.45;;;1.70;;
69678;SDS011;56915;52.046;4.854;2022-07-01T12:42:28;3.08;;;1.20;;
69678;SDS011;56915;52.046;4.854;2022-07-01T12:44:58;3.77;;;1.23;;
69678;SDS011;56915;52.046;4.854;2022-07-01T12:47:31;3.22;;;1.20;;
69678;SDS011;56915;52.046;4.854;2022-07-01T12:50:18;2.15;;;1.08;;
69678;SDS011;56915;52.046;4.854;2022-07-01T12:55:34;2.95;;;0.90;;
69678;SDS011;56915;52.046;4.854;2022-07-01T12:58:06;1.37;;;0.80;;
69678;SDS011;56915;52.046;4.854;2022-07-01T13:00:35;1.90;;;0.75;;
69678;SDS011;56915;52.046;4.854;2022-07-01T13:03:04;2.60;;;0.90;;
69678;SDS011;56915;52.046;4.854;2022-07-01T13:05:33;2.40;;;1.00;;
69678;SDS011;56915;52.046;4.854;2022-07-01T13:08:02;2.90;;;1.13;;
69678;SDS011;56915;52.046;4.854;2022-07-01T13:10:29;2.60;;;0.97;;
69678;SDS011;56915;52.046;4.854;2022-07-01T13:12:57;3.72;;;1.13;;
69678;SDS011;56915;52.046;4.854;2022-07-01T13:15:24;4.78;;;1.30;;
69678;SDS011;56915;52.046;4.854;2022-07-01T13:17:51;3.97;;;1.30;;
69678;SDS011;56915;52.046;4.854;2022-07-01T13:20:17;2.67;;;1.48;;
69678;SDS011;56915;52.046;4.854;2022-07-01T13:22:46;2.47;;;1.20;;
69678;SDS011;56915;52.046;4.854;2022-07-01T13:25:13;4.10;;;1.30;;
69678;SDS011;56915;52.046;4.854;2022-07-01T13:27:40;4.32;;;1.58;;
69678;SDS011;56915;52.046;4.854;2022-07-01T13:30:10;2.20;;;1.30;;
69678;SDS011;56915;52.046;4.854;2022-07-01T13:32:38;3.92;;;1.30;;
69678;SDS011;56915;52.046;4.854;2022-07-01T13:35:09;3.00;;;1.13;;
69678;SDS011;56915;52.046;4.854;2022-07-01T13:37:36;2.75;;;1.15;;
69678;SDS011;56915;52.046;4.854;2022-07-01T13:40:04;2.25;;;1.02;;
69678;SDS011;56915;52.046;4.854;2022-07-01T13:42:32;5.00;;;1.08;;
69678;SDS011;56915;52.046;4.854;2022-07-01T13:44:59;4.85;;;1.10;;
69678;SDS011;56915;52.046;4.854;2022-07-01T13:47:26;2.67;;;1.00;;
69678;SDS011;56915;52.046;4.854;2022-07-01T13:49:53;3.97;;;1.17;;
69678;SDS011;56915;52.046;4.854;2022-07-01T13:52:20;3.95;;;1.23;;
69678;SDS011;56915;52.046;4.854;2022-07-01T13:54:46;3.28;;;1.10;;
69678;SDS011;56915;52.046;4.854;2022-07-01T13:57:13;2.88;;;1.13;;
69678;SDS011;56915;52.046;4.854;2022-07-01T13:59:40;3.63;;;1.00;;
69678;SDS011;56915;52.046;4.854;2022-07-01T14:02:10;3.00;;;1.10;;
69678;SDS011;56915;52.046;4.854;2022-07-01T14:04:41;2.67;;;1.30;;
69678;SDS011;56915;52.046;4.854;2022-07-01T14:07:08;3.20;;;1.20;;
69678;SDS011;56915;52.046;4.854;2022-07-01T14:09:35;4.68;;;1.20;;
69678;SDS011;56915;52.046;4.854;2022-07-01T14:12:03;3.90;;;1.27;;
69678;SDS011;56915;52.046;4.854;2022-07-01T14:14:37;3.65;;;1.40;;
69678;SDS011;56915;52.046;4.854;2022-07-01T14:17:04;5.43;;;1.65;;
69678;SDS011;56915;52.046;4.854;2022-07-01T14:19:31;2.88;;;1.30;;
69678;SDS011;56915;52.046;4.854;2022-07-01T14:21:57;2.17;;;1.25;;
69678;SDS011;56915;52.046;4.854;2022-07-01T14:24:26;3.90;;;1.30;;
69678;SDS011;56915;52.046;4.854;2022-07-01T14:26:53;3.70;;;1.30;;
69678;SDS011;56915;52.046;4.854;2022-07-01T14:29:19;2.10;;;1.00;;
69678;SDS011;56915;52.046;4.854;2022-07-01T14:31:46;2.25;;;1.10;;
69678;SDS011;56915;52.046;4.854;2022-07-01T14:34:14;2.63;;;1.05;;
69678;SDS011;56915;52.046;4.854;2022-07-01T14:36:41;1.50;;;1.00;;
69678;SDS011;56915;52.046;4.854;2022-07-01T14:39:08;2.75;;;1.00;;
69678;SDS011;56915;52.046;4.854;2022-07-01T14:41:35;2.22;;;0.90;;
69678;SDS011;56915;52.046;4.854;2022-07-01T14:44:02;4.03;;;1.33;;
69678;SDS011;56915;52.046;4.854;2022-07-01T14:46:29;2.60;;;1.10;;
69678;SDS011;56915;52.046;4.854;2022-07-01T14:48:56;4.30;;;1.30;;
69678;SDS011;56915;52.046;4.854;2022-07-01T14:51:23;3.92;;;1.20;;
69678;SDS011;56915;52.046;4.854;2022-07-01T14:53:49;3.85;;;1.10;;
69678;SDS011;56915;52.046;4.854;2022-07-01T14:56:22;2.90;;;1.25;;
69678;SDS011;56915;52.046;4.854;2022-07-01T14:58:49;2.58;;;1.20;;
69678;SDS011;56915;52.046;4.854;2022-07-01T15:01:16;3.23;;;1.67;;
69678;SDS011;56915;52.046;4.854;2022-07-01T15:03:43;2.30;;;1.20;;
69678;SDS011;56915;52.046;4.854;2022-07-01T15:06:09;2.40;;;1.10;;
69678;SDS011;56915;52.046;4.854;2022-07-01T15:08:36;2.30;;;1.42;;
69678;SDS011;56915;52.046;4.854;2022-07-01T15:11:03;2.65;;;1.35;;
69678;SDS011;56915;52.046;4.854;2022-07-01T15:13:31;3.27;;;1.27;;
69678;SDS011;56915;52.046;4.854;2022-07-01T15:15:59;2.33;;;1.20;;
69678;SDS011;56915;52.046;4.854;2022-07-01T15:18:26;2.45;;;1.38;;
69678;SDS011;56915;52.046;4.854;2022-07-01T15:20:53;4.80;;;1.48;;
69678;SDS011;56915;52.046;4.854;2022-07-01T15:23:20;2.40;;;1.50;;
69678;SDS011;56915;52.046;4.854;2022-07-01T15:25:47;1.87;;;1.37;;
69678;SDS011;56915;52.046;4.854;2022-07-01T15:28:13;2.33;;;1.17;;
69678;SDS011;56915;52.046;4.854;2022-07-01T15:30:40;2.42;;;1.30;;
69678;SDS011;56915;52.046;4.854;2022-07-01T15:33:07;2.55;;;1.40;;
69678;SDS011;56915;52.046;4.854;2022-07-01T15:35:34;2.03;;;1.13;;
69678;SDS011;56915;52.046;4.854;2022-07-01T15:38:01;3.47;;;1.10;;
69678;SDS011;56915;52.046;4.854;2022-07-01T15:40:27;2.65;;;1.23;;
69678;SDS011;56915;52.046;4.854;2022-07-01T15:42:54;6.70;;;1.48;;
69678;SDS011;56915;52.046;4.854;2022-07-01T15:45:21;2.03;;;1.10;;
69678;SDS011;56915;52.046;4.854;2022-07-01T15:47:48;3.10;;;1.27;;
69678;SDS011;56915;52.046;4.854;2022-07-01T15:50:38;2.17;;;0.93;;
69678;SDS011;56915;52.046;4.854;2022-07-01T15:53:07;3.53;;;1.05;;
69678;SDS011;56915;52.046;4.854;2022-07-01T15:55:35;1.30;;;0.82;;
69678;SDS011;56915;52.046;4.854;2022-07-01T15:58:04;2.85;;;1.23;;
69678;SDS011;56915;52.046;4.854;2022-07-01T16:00:31;3.47;;;1.15;;
69678;SDS011;56915;52.046;4.854;2022-07-01T16:02:58;2.13;;;1.10;;
69678;SDS011;56915;52.046;4.854;2022-07-01T16:05:25;2.17;;;1.30;;
69678;SDS011;56915;52.046;4.854;2022-07-01T16:07:58;3.35;;;1.50;;
69678;SDS011;56915;52.046;4.854;2022-07-01T16:13:20;2.75;;;1.15;;
69678;SDS011;56915;52.046;4.854;2022-07-01T16:15:49;1.87;;;1.20;;
69678;SDS011;56915;52.046;4.854;2022-07-01T16:18:20;1.60;;;1.10;;
69678;SDS011;56915;52.046;4.854;2022-07-01T16:20:54;2.30;;;1.35;;
69678;SDS011;56915;52.046;4.854;2022-07-01T16:23:24;1.90;;;1.20;;
69678;SDS011;56915;52.046;4.854;2022-07-01T16:25:53;3.45;;;1.60;;
69678;SDS011;56915;52.046;4.854;2022-07-01T16:28:28;2.53;;;1.43;;
69678;SDS011;56915;52.046;4.854;2022-07-01T16:30:59;3.22;;;1.73;;
69678;SDS011;56915;52.046;4.854;2022-07-01T16:33:27;3.58;;;1.83;;
69678;SDS011;56915;52.046;4.854;2022-07-01T16:36:10;4.57;;;2.22;;
69678;SDS011;56915;52.046;4.854;2022-07-01T16:38:48;2.90;;;1.90;;
69678;SDS011;56915;52.046;4.854;2022-07-01T16:41:47;3.70;;;2.17;;
69678;SDS011;56915;52.046;4.854;2022-07-01T16:47:21;2.80;;;2.50;;
69678;SDS011;56915;52.046;4.854;2022-07-01T16:49:52;4.07;;;2.20;;
69678;SDS011;56915;52.046;4.854;2022-07-01T16:52:21;3.38;;;2.80;;
69678;SDS011;56915;52.046;4.854;2022-07-01T16:54:49;4.10;;;2.23;;
69678;SDS011;56915;52.046;4.854;2022-07-01T16:57:23;3.20;;;2.28;;
69678;SDS011;56915;52.046;4.854;2022-07-01T16:59:52;3.53;;;2.40;;
69678;SDS011;56915;52.046;4.854;2022-07-01T17:02:20;3.88;;;2.10;;
69678;SDS011;56915;52.046;4.854;2022-07-01T17:04:47;3.72;;;2.17;;
69678;SDS011;56915;52.046;4.854;2022-07-01T17:07:16;2.17;;;1.70;;
69678;SDS011;56915;52.046;4.854;2022-07-01T17:09:44;5.22;;;2.47;;
69678;SDS011;56915;52.046;4.854;2022-07-01T17:12:12;3.80;;;2.00;;
69678;SDS011;56915;52.046;4.854;2022-07-01T17:14:45;5.18;;;1.80;;
69678;SDS011;56915;52.046;4.854;2022-07-01T17:17:13;4.07;;;1.88;;
69678;SDS011;56915;52.046;4.854;2022-07-01T17:19:41;3.47;;;2.07;;
69678;SDS011;56915;52.046;4.854;2022-07-01T17:25:11;4.40;;;1.67;;
69678;SDS011;56915;52.046;4.854;2022-07-01T17:27:53;4.38;;;2.00;;
69678;SDS011;56915;52.046;4.854;2022-07-01T17:30:41;4.15;;;1.80;;
69678;SDS011;56915;52.046;4.854;2022-07-01T17:33:15;4.17;;;1.97;;
69678;SDS011;56915;52.046;4.854;2022-07-01T17:35:44;3.33;;;1.90;;
69678;SDS011;56915;52.046;4.854;2022-07-01T17:38:16;3.30;;;2.33;;
69678;SDS011;56915;52.046;4.854;2022-07-01T17:40:47;3.17;;;2.38;;
69678;SDS011;56915;52.046;4.854;2022-07-01T17:43:16;3.08;;;2.20;;
69678;SDS011;56915;52.046;4.854;2022-07-01T17:45:46;7.17;;;1.90;;
69678;SDS011;56915;52.046;4.854;2022-07-01T17:48:17;2.45;;;1.95;;
69678;SDS011;56915;52.046;4.854;2022-07-01T17:50:44;1.95;;;1.40;;
69678;SDS011;56915;52.046;4.854;2022-07-01T17:53:12;3.78;;;1.90;;
69678;SDS011;56915;52.046;4.854;2022-07-01T17:55:38;3.00;;;1.80;;
69678;SDS011;56915;52.046;4.854;2022-07-01T17:58:08;2.70;;;1.43;;
69678;SDS011;56915;52.046;4.854;2022-07-01T18:00:36;2.92;;;1.60;;
69678;SDS011;56915;52.046;4.854;2022-07-01T18:03:03;3.40;;;1.63;;
69678;SDS011;56915;52.046;4.854;2022-07-01T18:05:32;2.10;;;1.52;;
69678;SDS011;56915;52.046;4.854;2022-07-01T18:08:00;4.93;;;1.80;;
69678;SDS011;56915;52.046;4.854;2022-07-01T18:10:47;4.10;;;1.93;;
69678;SDS011;56915;52.046;4.854;2022-07-01T18:13:25;4.15;;;1.90;;
69678;SDS011;56915;52.046;4.854;2022-07-01T18:16:06;4.97;;;1.52;;
69678;SDS011;56915;52.046;4.854;2022-07-01T18:18:36;4.45;;;1.80;;
69678;SDS011;56915;52.046;4.854;2022-07-01T18:21:11;3.45;;;1.63;;
69678;SDS011;56915;52.046;4.854;2022-07-01T18:23:47;3.57;;;1.33;;
69678;SDS011;56915;52.046;4.854;2022-07-01T18:26:15;4.20;;;1.45;;
69678;SDS011;56915;52.046;4.854;2022-07-01T18:28:45;3.75;;;1.60;;
69678;SDS011;56915;52.046;4.854;2022-07-01T18:31:21;4.05;;;1.50;;
69678;SDS011;56915;52.046;4.854;2022-07-01T18:33:56;3.42;;;1.42;;
69678;SDS011;56915;52.046;4.854;2022-07-01T18:36:53;5.57;;;1.63;;
69678;SDS011;56915;52.046;4.854;2022-07-01T18:39:24;4.70;;;1.50;;
69678;SDS011;56915;52.046;4.854;2022-07-01T18:41:52;5.88;;;1.63;;
69678;SDS011;56915;52.046;4.854;2022-07-01T18:44:19;5.28;;;1.50;;
69678;SDS011;56915;52.046;4.854;2022-07-01T18:46:46;4.18;;;1.40;;
69678;SDS011;56915;52.046;4.854;2022-07-01T18:49:13;3.47;;;1.33;;
69678;SDS011;56915;52.046;4.854;2022-07-01T18:51:40;4.13;;;1.75;;